Time;durP1;ratioP1;P1;durP2;ratioP2;P2;SDS_P1;SDS_P2;PMS_P1;PMS_P2;Temp;Humidity;BMP_temperature;BMP_pressure;BME280_temperature;BME280_humidity;BME280_pressure;Samples;Min_cycle;Max_cycle;Signal;HPM_P1;HPM_P2
2021/12/13 00:00:53;;;;;;;52.88;17.35;;;;;;;1.54;nan;100896.06;5023111;28;20051;-71
2021/12/13 00:03:47;;;;;;;62.00;17.70;;;;;;;1.51;nan;100897.19;5015605;28;20381;-71
2021/12/13 00:06:44;;;;;;;49.78;16.38;;;;;;;1.47;nan;100894.06;5027188;28;20033;-71
2021/12/13 00:09:33;;;;;;;59.88;17.27;;;;;;;1.47;nan;100888.06;5022674;28;20069;-71
2021/12/13 00:12:22;;;;;;;51.65;15.60;;;;;;;1.28;nan;100861.34;5015252;28;20038;-71
2021/12/13 00:15:30;;;;;;;55.95;16.17;;;;;;;1.52;nan;100909.19;5025815;28;20044;-71
2021/12/13 00:18:27;;;;;;;51.90;15.73;;;;;;;1.53;nan;100917.78;5029727;28;20037;-71
2021/12/13 00:21:23;;;;;;;56.95;16.73;;;;;;;1.56;nan;100920.09;5030220;28;20036;-71
2021/12/13 00:24:22;;;;;;;51.80;15.45;;;;;;;1.51;nan;100917.09;5013959;28;20041;-71
2021/12/13 00:27:13;;;;;;;54.67;16.75;;;;;;;1.56;nan;100927.88;5027830;28;20033;-71
2021/12/13 00:29:59;;;;;;;51.95;16.17;;;;;;;1.56;nan;100925.28;5029316;28;20780;-71
2021/12/13 00:33:29;;;;;;;55.08;16.95;;;;;;;1.59;nan;100930.16;5030073;28;20037;-71
2021/12/13 00:36:17;;;;;;;49.17;15.38;;;;;;;1.56;nan;100927.88;5031276;28;20088;-71
2021/12/13 00:39:15;;;;;;;80.63;18.23;;;;;;;1.52;nan;100922.16;5032015;28;20043;-71
2021/12/13 00:42:03;;;;;;;52.70;19.08;;;;;;;1.56;nan;100938.25;5030806;28;20533;-71
2021/12/13 00:44:53;;;;;;;55.60;19.00;;;;;;;1.55;nan;100934.81;5024676;28;20119;-71
2021/12/13 00:47:42;;;;;;;63.35;21.38;;;;;;;1.51;nan;100928.31;5031952;28;20269;-71
2021/12/13 00:51:00;;;;;;;69.95;22.40;;;;;;;1.55;nan;100959.97;5032115;28;20033;-71
2021/12/13 00:53:49;;;;;;;64.40;22.83;;;;;;;1.49;nan;100949.22;5010487;28;20041;-71
2021/12/13 00:56:49;;;;;;;67.25;23.30;;;;;;;1.49;nan;100938.84;5008920;28;20121;-71
2021/12/13 00:59:46;;;;;;;70.45;23.02;;;;;;;1.53;nan;100948.91;5010953;28;20042;-71
2021/12/13 01:02:51;;;;;;;66.18;23.15;;;;;;;1.52;nan;100952.50;5037829;28;20079;-71
2021/12/13 01:05:43;;;;;;;73.55;24.23;;;;;;;1.40;nan;100942.34;5023793;28;20120;-70
2021/12/13 01:08:41;;;;;;;72.35;23.73;;;;;;;1.51;nan;100958.63;5018796;28;20436;-70
2021/12/13 01:11:50;;;;;;;68.93;23.38;;;;;;;1.50;nan;100965.59;5006485;28;20038;-71
2021/12/13 01:15:10;;;;;;;72.35;22.45;;;;;;;1.51;nan;100961.22;5015811;28;20630;-70
2021/12/13 01:22:19;;;;;;;76.15;23.10;;;;;;;1.43;nan;100952.41;5011326;28;20045;-71
2021/12/13 01:27:38;;;;;;;57.65;20.98;;;;;;;1.45;nan;100957.47;5006335;28;20520;-70
2021/12/13 01:30:32;;;;;;;65.32;22.67;;;;;;;1.48;nan;100954.56;5018374;28;20045;-71
2021/12/13 01:33:22;;;;;;;64.95;23.55;;;;;;;1.44;nan;100948.06;5022011;28;20030;-71
2021/12/13 01:36:12;;;;;;;65.68;23.02;;;;;;;1.43;nan;100951.59;5029695;28;20503;-69
2021/12/13 01:39:01;;;;;;;54.58;19.98;;;;;;;1.43;nan;100947.22;5029240;28;20041;-71
2021/12/13 01:41:58;;;;;;;61.70;21.30;;;;;;;1.42;nan;100956.00;5022265;28;20042;-71
2021/12/13 01:44:50;;;;;;;59.72;21.33;;;;;;;1.43;nan;100962.78;5030035;28;20117;-70
2021/12/13 01:47:40;;;;;;;61.15;23.00;;;;;;;1.42;nan;100950.78;5025191;28;20044;-71
2021/12/13 01:50:31;;;;;;;60.75;21.25;;;;;;;1.39;nan;100940.72;5024791;28;20084;-70
2021/12/13 01:53:19;;;;;;;70.47;22.13;;;;;;;1.39;nan;100938.13;5029789;28;20033;-70
2021/12/13 01:56:23;;;;;;;67.93;22.38;;;;;;;1.49;nan;100957.00;5026430;28;20087;-71
2021/12/13 01:59:29;;;;;;;63.80;22.00;;;;;;;1.53;nan;100952.31;5030427;28;20029;-70
2021/12/13 02:02:44;;;;;;;62.83;21.90;;;;;;;1.51;nan;100958.63;5018083;28;20412;-70
2021/12/13 02:05:32;;;;;;;65.30;22.55;;;;;;;1.51;nan;100953.44;5019234;28;20387;-71
2021/12/13 02:08:24;;;;;;;60.97;22.03;;;;;;;1.45;nan;100949.69;5026069;28;20148;-70
2021/12/13 02:11:10;;;;;;;70.50;23.20;;;;;;;1.48;nan;100949.38;5019286;28;20700;-71
2021/12/13 02:14:09;;;;;;;70.63;23.67;;;;;;;1.51;nan;100958.63;5023038;28;20041;-76
2021/12/13 02:17:11;;;;;;;63.30;22.08;;;;;;;1.54;nan;100958.34;5029679;28;20036;-77
2021/12/13 02:20:07;;;;;;;64.18;22.08;;;;;;;1.53;nan;100957.50;5016162;28;20038;-77
2021/12/13 02:22:56;;;;;;;62.97;21.33;;;;;;;1.53;nan;100961.88;5029940;28;20079;-77
2021/12/13 02:25:49;;;;;;;64.47;21.75;;;;;;;1.58;nan;100964.84;5028212;28;20080;-77
2021/12/13 02:28:38;;;;;;;60.13;20.88;;;;;;;1.49;nan;100956.19;5026687;28;20120;-77
2021/12/13 02:31:29;;;;;;;55.97;20.65;;;;;;;1.48;nan;100952.81;5019835;28;20380;-70
2021/12/13 02:34:17;;;;;;;58.83;19.98;;;;;;;1.48;nan;100958.00;5020508;28;20037;-70
2021/12/13 02:37:04;;;;;;;67.28;22.15;;;;;;;1.53;nan;100961.88;5012279;28;20084;-71
2021/12/13 02:39:56;;;;;;;66.85;22.42;;;;;;;1.57;nan;100968.41;5024614;28;20128;-71
2021/12/13 02:42:44;;;;;;;71.22;24.10;;;;;;;1.56;nan;100970.22;5026330;28;20041;-70
2021/12/13 02:45:42;;;;;;;73.85;25.08;;;;;;;1.54;nan;100974.72;5031007;28;20040;-71
2021/12/13 02:48:34;;;;;;;71.00;24.85;;;;;;;1.54;nan;100987.72;5030143;28;20037;-70
2021/12/13 02:51:29;;;;;;;70.50;24.52;;;;;;;1.53;nan;100986.06;5030177;28;20026;-69
2021/12/13 02:54:22;;;;;;;81.80;24.25;;;;;;;1.53;nan;100987.84;5034888;28;20103;-70
2021/12/13 02:57:19;;;;;;;74.07;24.00;;;;;;;1.53;nan;100985.25;5033532;28;20064;-71
2021/12/13 03:00:15;;;;;;;74.03;22.95;;;;;;;1.55;nan;100991.09;5031253;28;20484;-70
2021/12/13 03:03:08;;;;;;;84.82;25.25;;;;;;;1.56;nan;100982.38;5020384;28;20059;-71
2021/12/13 03:05:57;;;;;;;80.25;24.88;;;;;;;1.41;nan;100969.94;5029276;28;20041;-70
2021/12/13 03:08:55;;;;;;;84.60;24.38;;;;;;;1.55;nan;100996.31;5034252;28;20029;-70
2021/12/13 03:11:44;;;;;;;79.38;24.08;;;;;;;1.52;nan;100986.22;5023291;28;20045;-70
2021/12/13 03:14:40;;;;;;;80.73;24.80;;;;;;;1.51;nan;100981.97;5032322;28;20029;-70
2021/12/13 03:17:37;;;;;;;80.97;24.10;;;;;;;1.42;nan;100979.34;5023320;28;20065;-70
2021/12/13 03:20:49;;;;;;;80.50;24.05;;;;;;;1.48;nan;100994.31;5051573;28;20033;-71
2021/12/13 03:24:06;;;;;;;72.28;21.98;;;;;;;1.34;nan;100997.44;5014761;28;20038;-70
2021/12/13 03:27:04;;;;;;;79.05;23.58;;;;;;;1.38;nan;101005.75;5029538;28;20554;-70
2021/12/13 03:29:53;;;;;;;68.80;22.45;;;;;;;1.37;nan;100999.75;5032852;28;20069;-71
2021/12/13 03:32:48;;;;;;;69.70;23.45;;;;;;;1.30;nan;100990.94;5029370;28;20049;-70
2021/12/13 03:35:50;;;;;;;74.65;23.67;;;;;;;1.29;nan;101002.25;5026547;28;20034;-71
2021/12/13 03:38:41;;;;;;;64.40;21.63;;;;;;;1.26;nan;101007.75;5023042;28;20056;-70
2021/12/13 03:41:27;;;;;;;64.22;22.10;;;;;;;1.22;nan;101007.25;5032032;28;20046;-71
2021/12/13 03:44:17;;;;;;;63.78;21.52;;;;;;;1.18;nan;101012.88;5031175;28;20065;-70
2021/12/13 03:47:11;;;;;;;69.30;22.65;;;;;;;1.06;nan;100997.53;5032536;28;20088;-70
2021/12/13 03:50:00;;;;;;;62.20;20.90;;;;;;;1.17;nan;101024.19;5013456;28;20052;-71
2021/12/13 03:52:48;;;;;;;71.97;23.80;;;;;;;1.14;nan;101027.09;5029309;28;20474;-70
2021/12/13 03:55:34;;;;;;;65.53;22.70;;;;;;;1.17;nan;101037.16;5019139;28;20372;-70
2021/12/13 03:58:22;;;;;;;72.10;22.00;;;;;;;1.11;nan;101030.00;5024312;28;20154;-71
2021/12/13 04:01:14;;;;;;;71.50;23.20;;;;;;;1.06;nan;101028.63;5032468;28;20056;-78
2021/12/13 04:04:03;;;;;;;66.57;22.70;;;;;;;1.13;nan;101044.44;5017764;28;20042;-78
2021/12/13 04:07:00;;;;;;;65.60;23.02;;;;;;;1.13;nan;101051.41;5028204;28;20037;-78
2021/12/13 04:09:49;;;;;;;69.97;24.15;;;;;;;1.07;nan;101037.22;5021515;28;20036;-78
2021/12/13 04:12:42;;;;;;;64.50;23.60;;;;;;;1.08;nan;101027.66;5013476;28;20042;-78
2021/12/13 04:16:48;;;;;;;60.97;22.25;;;;;;;1.11;nan;101040.38;5018314;28;20112;-77
2021/12/13 04:19:12;;;;;;;70.47;22.50;;;;;;;1.05;nan;101045.19;5028164;28;20045;-78
2021/12/13 04:22:03;;;;;;;62.97;22.98;;;;;;;1.14;nan;101051.25;5013326;28;20107;-77
2021/12/13 04:24:53;;;;;;;59.85;23.10;;;;;;;1.15;nan;101052.91;5024584;28;20045;-78
2021/12/13 04:27:44;;;;;;;67.30;22.48;;;;;;;1.06;nan;101027.84;5023407;28;20036;-78
2021/12/13 04:30:32;;;;;;;66.15;23.35;;;;;;;0.97;nan;101021.75;5012892;28;20034;-78
2021/12/13 04:33:23;;;;;;;63.55;22.23;;;;;;;1.06;nan;101033.84;5017091;28;20042;-78
2021/12/13 04:36:24;;;;;;;62.95;22.38;;;;;;;1.10;nan;101043.91;5026129;28;20041;-78
2021/12/13 04:39:13;;;;;;;68.78;21.20;;;;;;;1.14;nan;101051.25;5018339;28;20384;-78
2021/12/13 04:42:11;;;;;;;65.25;22.73;;;;;;;1.06;nan;101027.84;5016562;28;20112;-78
2021/12/13 04:45:17;;;;;;;58.72;21.20;;;;;;;1.10;nan;101054.28;5030234;28;20033;-79
2021/12/13 04:48:14;;;;;;;61.28;20.95;;;;;;;1.11;nan;101059.31;5022067;28;20633;-79
2021/12/13 04:51:13;;;;;;;68.10;21.02;;;;;;;1.08;nan;101043.22;5029713;28;20041;-78
2021/12/13 04:53:59;;;;;;;64.20;23.02;;;;;;;1.07;nan;101055.38;5015003;28;20026;-78
2021/12/13 04:56:47;;;;;;;73.05;23.40;;;;;;;1.03;nan;101061.81;5025024;28;20022;-78
2021/12/13 04:59:34;;;;;;;74.30;23.58;;;;;;;1.00;nan;101046.56;5015669;28;20456;-78
2021/12/13 05:02:21;;;;;;;78.72;26.73;;;;;;;1.05;nan;101059.91;5027653;28;20054;-78
2021/12/13 05:05:07;;;;;;;80.60;25.63;;;;;;;0.94;nan;101058.34;5022212;28;20467;-78
2021/12/13 05:07:54;;;;;;;76.82;24.98;;;;;;;1.02;nan;101070.56;5026125;28;20090;-78
2021/12/13 05:10:44;;;;;;;78.18;25.42;;;;;;;1.01;nan;101069.75;5025259;28;20025;-78
2021/12/13 05:13:38;;;;;;;91.75;29.42;;;;;;;0.95;nan;101061.75;5029939;28;20053;-78
2021/12/13 05:16:41;;;;;;;110.38;32.65;;;;;;;1.01;nan;101061.19;5024650;28;20033;-78
2021/12/13 05:19:31;;;;;;;83.82;25.98;;;;;;;1.02;nan;101081.75;5028327;28;20108;-78
2021/12/13 05:22:20;;;;;;;79.03;24.88;;;;;;;1.00;nan;101083.69;5027911;28;20033;-78
2021/12/13 05:25:06;;;;;;;79.22;26.52;;;;;;;1.02;nan;101084.34;5027807;28;20087;-78
2021/12/13 05:28:05;;;;;;;85.68;25.92;;;;;;;1.03;nan;101092.94;5019267;28;20088;-76
2021/12/13 05:30:57;;;;;;;78.22;25.70;;;;;;;1.01;nan;101089.69;5017535;28;20128;-76
2021/12/13 05:33:48;;;;;;;81.50;24.50;;;;;;;1.02;nan;101091.31;5015169;28;20026;-76
2021/12/13 05:36:36;;;;;;;80.45;24.85;;;;;;;0.95;nan;101095.47;5024608;28;20029;-77
2021/12/13 05:39:22;;;;;;;73.93;24.35;;;;;;;0.93;nan;101100.78;5025807;28;20060;-76
2021/12/13 05:42:11;;;;;;;76.82;24.33;;;;;;;0.97;nan;101117.69;5023223;28;20038;-76
2021/12/13 05:44:57;;;;;;;83.60;25.67;;;;;;;0.91;nan;101105.31;5029127;28;20037;-76
2021/12/13 05:47:55;;;;;;;80.93;24.48;;;;;;;1.01;nan;101124.22;5025714;28;20032;-76
2021/12/13 05:50:49;;;;;;;75.97;24.38;;;;;;;0.89;nan;101103.78;5037292;28;20048;-74
2021/12/13 05:53:42;;;;;;;82.95;24.55;;;;;;;0.96;nan;101116.06;5025641;28;20523;-75
2021/12/13 05:56:42;;;;;;;83.88;25.75;;;;;;;0.99;nan;101118.38;5028997;28;20072;-74
2021/12/13 05:59:35;;;;;;;155.38;44.40;;;;;;;0.97;nan;101122.88;5024302;28;20041;-75
2021/12/13 06:02:57;;;;;;;1999.90;450.70;;;;;;;1.52;nan;101131.56;5020634;28;20116;-75
2021/12/13 06:05:51;;;;;;;124.05;31.30;;;;;;;1.62;nan;101127.94;5017756;28;20117;-73
2021/12/13 06:08:53;;;;;;;101.10;29.67;;;;;;;1.57;nan;101137.94;5039441;28;20048;-73
2021/12/13 06:11:39;;;;;;;92.40;28.77;;;;;;;1.40;nan;101134.38;5015266;28;20076;-73
2021/12/13 06:14:27;;;;;;;81.03;25.70;;;;;;;1.33;nan;101132.50;5029854;28;20404;-72
2021/12/13 06:17:28;;;;;;;76.45;24.58;;;;;;;1.22;nan;101131.75;5029507;28;20499;-72
2021/12/13 06:20:20;;;;;;;78.13;26.27;;;;;;;1.15;nan;101135.91;5023737;28;20048;-74
2021/12/13 06:23:11;;;;;;;81.53;25.63;;;;;;;1.15;nan;101132.47;5027439;28;20045;-74
2021/12/13 06:26:12;;;;;;;71.88;24.85;;;;;;;1.07;nan;101115.03;5028164;28;20048;-72
2021/12/13 06:29:01;;;;;;;77.70;23.90;;;;;;;1.08;nan;101128.81;5015108;28;20045;-72
2021/12/13 06:31:47;;;;;;;69.82;21.67;;;;;;;0.90;nan;101108.84;5027685;28;20045;-72
2021/12/13 06:34:33;;;;;;;66.47;22.08;;;;;;;0.93;nan;101123.31;5032951;28;20057;-73
2021/12/13 06:37:27;;;;;;;80.55;22.98;;;;;;;0.91;nan;101123.47;5030071;28;20033;-74
2021/12/13 06:40:27;;;;;;;72.57;23.17;;;;;;;0.92;nan;101127.69;5030410;28;20037;-74
2021/12/13 06:43:24;;;;;;;81.07;24.83;;;;;;;0.90;nan;101132.19;5037878;28;20045;-76
2021/12/13 06:46:22;;;;;;;82.53;24.52;;;;;;;0.97;nan;101146.22;5026939;28;20069;-73
2021/12/13 06:49:13;;;;;;;84.40;26.42;;;;;;;0.87;nan;101140.25;5021808;28;20068;-72
2021/12/13 06:52:02;;;;;;;92.30;28.23;;;;;;;1.01;nan;101152.75;5029533;28;20033;-74
2021/12/13 06:55:16;;;;;;;75.05;24.13;;;;;;;0.95;nan;101150.72;5029577;28;20045;-73
2021/12/13 06:58:13;;;;;;;70.25;22.02;;;;;;;0.90;nan;101147.75;5029559;28;20129;-75
2021/12/13 07:01:06;;;;;;;83.18;25.58;;;;;;;0.96;nan;101161.91;5030903;28;20045;-74
2021/12/13 07:04:07;;;;;;;74.00;24.23;;;;;;;0.96;nan;101161.91;5032475;28;20037;-73
2021/12/13 07:07:08;;;;;;;77.60;26.63;;;;;;;0.93;nan;101159.59;5031139;28;20508;-73
2021/12/13 07:10:00;;;;;;;89.38;26.95;;;;;;;0.93;nan;101155.22;5025877;28;20041;-74
2021/12/13 07:12:55;;;;;;;82.95;25.90;;;;;;;0.90;nan;101146.94;5015150;28;20037;-73
2021/12/13 07:15:48;;;;;;;79.25;25.83;;;;;;;0.92;nan;101166.56;5031315;28;20029;-73
2021/12/13 07:18:40;;;;;;;90.30;25.10;;;;;;;0.96;nan;101170.53;5043670;28;20040;-72
2021/12/13 07:21:31;;;;;;;85.80;24.40;;;;;;;0.98;nan;101173.78;5031533;28;20029;-72
2021/12/13 07:24:26;;;;;;;92.93;28.25;;;;;;;0.88;nan;101170.41;5027937;28;20025;-73
2021/12/13 07:27:17;;;;;;;78.43;25.83;;;;;;;0.92;nan;101179.53;5024974;28;20070;-74
2021/12/13 07:30:12;;;;;;;86.22;26.25;;;;;;;0.86;nan;101187.88;5028461;28;20030;-74
2021/12/13 07:33:08;;;;;;;82.85;26.60;;;;;;;0.88;nan;101182.56;5038580;28;20048;-74
2021/12/13 07:35:55;;;;;;;83.55;26.15;;;;;;;0.81;nan;101187.47;5051091;28;20086;-73
2021/12/13 07:38:53;;;;;;;82.65;27.13;;;;;;;0.86;nan;101190.47;5025884;28;20029;-73
2021/12/13 07:41:49;;;;;;;81.20;25.07;;;;;;;0.88;nan;101192.94;5033764;28;20042;-73
2021/12/13 07:44:39;;;;;;;82.07;25.73;;;;;;;0.90;nan;101198.78;5014154;28;20523;-74
2021/12/13 07:47:25;;;;;;;85.03;25.88;;;;;;;0.84;nan;101200.19;5029275;28;20516;-74
2021/12/13 07:50:12;;;;;;;81.43;27.80;;;;;;;0.84;nan;101203.59;5021132;28;20042;-74
2021/12/13 07:53:02;;;;;;;97.18;27.30;;;;;;;0.89;nan;101204.91;5017589;28;20069;-74
2021/12/13 07:55:49;;;;;;;75.50;24.58;;;;;;;0.84;nan;101218.34;5042260;28;20041;-74
2021/12/13 07:58:46;;;;;;;86.40;26.23;;;;;;;0.81;nan;101210.81;5023778;28;20436;-75
2021/12/13 08:01:35;;;;;;;92.63;26.17;;;;;;;0.84;nan;101219.16;5033125;28;20053;-74
2021/12/13 08:04:23;;;;;;;94.88;30.95;;;;;;;0.87;nan;101225.81;5032344;28;20116;-74
2021/12/13 08:07:10;;;;;;;86.90;31.40;;;;;;;0.82;nan;101228.03;5029677;28;20124;-74
2021/12/13 08:10:00;;;;;;;105.07;34.58;;;;;;;0.76;nan;101220.78;5022607;28;20080;-74
2021/12/13 08:13:10;;;;;;;79.30;27.95;;;;;;;0.76;nan;101233.75;5038687;28;20149;-73
2021/12/13 08:16:04;;;;;;;79.72;25.95;;;;;;;0.72;nan;101237.56;5021084;28;20120;-73
2021/12/13 08:19:05;;;;;;;94.45;26.90;;;;;;;0.75;nan;101232.94;5026178;28;20492;-73
2021/12/13 08:21:58;;;;;;;84.07;24.92;;;;;;;0.78;nan;101242.22;5030377;28;20041;-74
2021/12/13 08:25:09;;;;;;;88.90;25.90;;;;;;;0.83;nan;101245.19;5030257;28;20030;-74
2021/12/13 08:28:11;;;;;;;96.55;26.30;;;;;;;0.82;nan;101243.59;5015395;28;20439;-73
2021/12/13 08:31:00;;;;;;;89.32;24.60;;;;;;;0.77;nan;101250.97;5019342;28;20407;-74
2021/12/13 08:33:51;;;;;;;88.63;25.48;;;;;;;0.74;nan;101233.06;5037101;28;20113;-74
2021/12/13 08:36:41;;;;;;;80.78;25.27;;;;;;;0.86;nan;101257.88;5035945;28;20103;-73
2021/12/13 08:39:34;;;;;;;80.10;24.25;;;;;;;0.79;nan;101257.66;5053104;28;20040;-74
2021/12/13 08:42:24;;;;;;;85.78;26.55;;;;;;;0.80;nan;101256.66;5027439;28;20102;-74
2021/12/13 08:45:19;;;;;;;93.85;27.70;;;;;;;0.82;nan;101243.59;5027710;28;20177;-74
2021/12/13 08:48:12;;;;;;;89.75;27.60;;;;;;;0.80;nan;101248.91;5029166;28;20036;-76
2021/12/13 08:51:00;;;;;;;86.82;25.40;;;;;;;0.65;nan;101237.34;5021132;28;20499;-74
2021/12/13 08:53:58;;;;;;;71.40;23.27;;;;;;;0.69;nan;101249.03;5029364;28;20033;-75
2021/12/13 08:56:48;;;;;;;97.50;29.52;;;;;;;0.77;nan;101259.56;5038367;28;20036;-74
2021/12/13 08:59:35;;;;;;;85.25;26.83;;;;;;;0.87;nan;101269.09;5041352;28;20120;-75
2021/12/13 09:02:27;;;;;;;91.90;26.52;;;;;;;0.89;nan;101273.19;5031520;28;20064;-73
2021/12/13 09:05:18;;;;;;;89.88;27.67;;;;;;;1.04;nan;101261.38;5031472;28;20087;-74
2021/12/13 09:08:09;;;;;;;91.43;26.48;;;;;;;1.24;nan;101262.13;5032185;28;20112;-75
2021/12/13 09:11:13;;;;;;;99.82;28.30;;;;;;;1.35;nan;101249.97;5025901;28;20518;-75
2021/12/13 09:14:08;;;;;;;91.45;28.95;;;;;;;1.45;nan;101261.09;5032451;28;20034;-74
2021/12/13 09:17:10;;;;;;;83.75;26.83;;;;;;;1.53;nan;101257.78;5024453;28;20447;-74
2021/12/13 09:20:21;;;;;;;86.97;27.15;;;;;;;1.63;nan;101261.97;5030216;28;20030;-75
2021/12/13 09:23:20;;;;;;;79.07;26.08;;;;;;;1.67;nan;101254.69;5029349;28;20091;-75
2021/12/13 09:26:19;;;;;;;83.68;27.60;;;;;;;1.70;nan;101252.66;5029223;28;20030;-76
2021/12/13 09:29:06;;;;;;;73.60;24.10;;;;;;;1.73;nan;101259.31;5022605;28;20060;-76
2021/12/13 09:31:52;;;;;;;71.60;24.13;;;;;;;1.63;nan;101237.81;5029445;28;20064;-74
2021/12/13 09:34:38;;;;;;;64.90;23.23;;;;;;;1.52;nan;101235.41;5025840;28;20045;-75
2021/12/13 09:37:33;;;;;;;76.00;24.45;;;;;;;1.57;nan;101253.94;5029172;28;20064;-76
2021/12/13 09:40:31;;;;;;;72.95;23.88;;;;;;;1.60;nan;101243.25;5028246;28;20037;-75
2021/12/13 09:43:21;;;;;;;67.05;23.65;;;;;;;1.49;nan;101239.09;5025459;28;20091;-75
2021/12/13 09:46:07;;;;;;;74.03;24.65;;;;;;;1.72;nan;101257.66;5012982;28;20044;-75
2021/12/13 09:48:55;;;;;;;90.50;27.42;;;;;;;1.91;nan;101238.56;5026614;28;20491;-75
2021/12/13 09:51:59;;;;;;;79.72;26.42;;;;;;;2.27;nan;101249.75;5026512;28;20056;-75
2021/12/13 09:54:49;;;;;;;78.07;25.67;;;;;;;2.34;nan;101250.78;5028533;28;20462;-75
2021/12/13 09:58:19;;;;;;;87.25;26.40;;;;;;;2.55;nan;101252.28;5028869;28;20029;-75
2021/12/13 10:01:11;;;;;;;;;;;;;;;2.65;nan;101241.78;5028174;28;20449;-77
2021/12/13 10:04:15;;;;;;;71.55;23.63;;;;;;;2.35;nan;101228.25;5027898;28;20373;-75
2021/12/13 10:07:15;;;;;;;69.88;24.05;;;;;;;2.21;nan;101232.19;5024858;28;20044;-74
2021/12/13 10:10:16;;;;;;;63.90;22.48;;;;;;;2.06;nan;101223.25;5030159;28;20442;-76
2021/12/13 10:13:07;;;;;;;64.10;23.08;;;;;;;2.04;nan;101225.22;5024183;28;20043;-76
2021/12/13 10:15:58;;;;;;;63.30;21.85;;;;;;;1.96;nan;101249.31;5029465;28;20044;-75
2021/12/13 10:18:46;;;;;;;57.72;22.17;;;;;;;1.75;nan;101240.97;5026993;28;20056;-76
2021/12/13 10:21:41;;;;;;;61.50;21.83;;;;;;;1.62;nan;101231.75;5028577;28;20034;-75
2021/12/13 10:24:34;;;;;;;69.47;24.00;;;;;;;1.72;nan;101242.09;5026624;28;20071;-76
2021/12/13 10:27:20;;;;;;;480.15;271.30;;;;;;;1.70;nan;101251.84;5030517;28;20033;-74
2021/12/13 10:30:12;;;;;;;278.92;126.47;;;;;;;1.91;nan;101235.97;5027613;28;20086;-75
2021/12/13 10:32:59;;;;;;;119.70;46.63;;;;;;;1.98;nan;101231.81;5030173;28;20033;-76
2021/12/13 10:35:46;;;;;;;107.63;40.30;;;;;;;1.99;nan;101240.41;5030744;28;20116;-75
2021/12/13 10:38:41;;;;;;;87.88;33.75;;;;;;;1.59;nan;101185.34;5024105;28;20073;-76
2021/12/13 10:41:40;;;;;;;101.72;40.47;;;;;;;1.78;nan;101241.53;5023073;28;20183;-75
2021/12/13 10:44:29;;;;;;;80.88;30.88;;;;;;;1.73;nan;101235.94;5022832;28;20499;-74
2021/12/13 10:47:28;;;;;;;79.03;28.65;;;;;;;1.71;nan;101240.47;5027241;28;20033;-75
2021/12/13 10:50:24;;;;;;;76.72;27.33;;;;;;;1.70;nan;101239.66;5026875;28;20037;-75
2021/12/13 10:53:12;;;;;;;78.70;26.08;;;;;;;1.48;nan;101206.31;5015414;28;20411;-74
2021/12/13 10:56:07;;;;;;;91.35;27.67;;;;;;;1.64;nan;101247.22;5014446;28;20487;-75
2021/12/13 10:58:57;;;;;;;74.32;24.38;;;;;;;1.57;nan;101251.34;5029807;28;20037;-75
2021/12/13 11:01:47;;;;;;;77.75;26.38;;;;;;;1.61;nan;101257.88;5015296;28;20050;-75
2021/12/13 11:04:43;;;;;;;74.28;24.08;;;;;;;1.58;nan;101239.97;5021999;28;20099;-75
2021/12/13 11:07:29;;;;;;;71.35;25.50;;;;;;;1.51;nan;101239.78;5033604;28;20057;-75
2021/12/13 11:10:20;;;;;;;74.65;25.35;;;;;;;1.55;nan;101248.06;5026125;28;20123;-75
2021/12/13 11:13:07;;;;;;;70.10;23.73;;;;;;;1.58;nan;101256.41;5030043;28;20110;-75
2021/12/13 11:15:55;;;;;;;66.45;22.95;;;;;;;1.53;nan;101253.41;5030978;28;20025;-75
2021/12/13 11:18:42;;;;;;;95.13;37.08;;;;;;;1.50;nan;101248.50;5033551;28;20033;-76
2021/12/13 11:21:33;;;;;;;82.72;33.20;;;;;;;1.56;nan;101260.91;5029433;28;20117;-74
2021/12/13 11:24:24;;;;;;;67.90;22.83;;;;;;;1.47;nan;101244.41;5047145;28;20091;-74
2021/12/13 11:27:15;;;;;;;58.80;20.85;;;;;;;1.43;nan;101245.66;5032910;28;20044;-77
2021/12/13 11:30:05;;;;;;;54.42;19.63;;;;;;;1.50;nan;101258.88;5027287;28;20054;-75
2021/12/13 11:32:57;;;;;;;56.97;20.95;;;;;;;1.54;nan;101259.44;5046066;28;20039;-73
2021/12/13 11:36:02;;;;;;;62.63;22.42;;;;;;;1.46;nan;101262.72;5029007;28;20037;-74
2021/12/13 11:39:35;;;;;;;62.00;22.13;;;;;;;1.36;nan;101236.81;5025059;28;20385;-75
2021/12/13 11:42:21;;;;;;;71.57;28.17;;;;;;;1.55;nan;101256.66;5030662;28;20089;-76
2021/12/13 11:45:13;;;;;;;65.50;25.80;;;;;;;1.57;nan;101259.13;5032952;28;20143;-75
2021/12/13 11:48:40;;;;;;;66.10;25.65;;;;;;;1.53;nan;101257.78;5029522;28;20033;-75
2021/12/13 11:51:47;;;;;;;59.75;23.08;;;;;;;1.48;nan;101253.84;5001011;28;20064;-73
2021/12/13 11:54:51;;;;;;;65.13;23.65;;;;;;;1.48;nan;101261.66;5011839;28;20033;-73
2021/12/13 11:57:55;;;;;;;67.75;25.38;;;;;;;1.51;nan;101262.28;5008930;28;20591;-73
2021/12/13 12:01:11;;;;;;;67.57;23.58;;;;;;;1.49;nan;101257.25;5009683;28;20049;-75
2021/12/13 12:04:41;;;;;;;62.17;23.55;;;;;;;1.43;nan;101247.44;5009046;28;20026;-74
2021/12/13 12:07:45;;;;;;;61.35;22.40;;;;;;;1.43;nan;101255.22;5010167;28;20041;-74
2021/12/13 12:11:25;;;;;;;56.53;22.10;;;;;;;1.40;nan;101252.94;5002202;28;20418;-74
2021/12/13 12:14:12;;;;;;;53.83;20.90;;;;;;;1.37;nan;101246.25;4978076;28;20487;-74
2021/12/13 12:17:00;;;;;;;57.85;22.92;;;;;;;1.41;nan;101254.56;4974963;28;20369;-73
2021/12/13 12:19:46;;;;;;;58.75;22.10;;;;;;;1.27;nan;101238.50;4971268;28;20093;-73
2021/12/13 12:22:49;;;;;;;50.67;20.77;;;;;;;1.30;nan;101236.59;4984556;28;20046;-72
2021/12/13 12:25:37;;;;;;;54.05;19.90;;;;;;;1.31;nan;101241.63;4976475;28;20157;-72
2021/12/13 12:28:28;;;;;;;54.47;21.73;;;;;;;1.29;nan;101235.75;4976449;28;20088;-75
2021/12/13 12:31:13;;;;;;;52.00;21.20;;;;;;;1.26;nan;101247.25;4972478;28;20140;-75
2021/12/13 12:34:00;;;;;;;48.67;19.92;;;;;;;1.26;nan;101252.44;4990298;28;20030;-72
2021/12/13 12:36:58;;;;;;;45.08;19.20;;;;;;;1.25;nan;101253.41;4989875;28;20031;-73
2021/12/13 12:40:08;;;;;;;47.63;18.13;;;;;;;1.23;nan;101257.91;4989071;28;20505;-73
2021/12/13 12:43:00;;;;;;;48.80;19.13;;;;;;;1.16;nan;101251.66;4988116;28;20073;-72
2021/12/13 12:45:59;;;;;;;39.35;17.23;;;;;;;1.10;nan;101260.00;4990616;28;20045;-72
2021/12/13 12:48:51;;;;;;;40.88;17.23;;;;;;;1.22;nan;101268.41;5031200;28;20036;-73
2021/12/13 12:51:38;;;;;;;41.92;17.27;;;;;;;1.11;nan;101261.66;5031184;28;20033;-73
2021/12/13 12:54:24;;;;;;;34.22;14.68;;;;;;;1.13;nan;101267.50;5012289;28;20065;-75
2021/12/13 12:57:10;;;;;;;34.22;15.32;;;;;;;1.05;nan;101262.19;5020677;28;20451;-75
2021/12/13 12:59:56;;;;;;;32.67;14.05;;;;;;;1.08;nan;101271.47;5025585;28;20478;-77
2021/12/13 13:02:41;;;;;;;26.58;12.93;;;;;;;1.10;nan;101282.53;5013850;28;20137;-77
2021/12/13 13:05:30;;;;;;;31.30;14.02;;;;;;;1.06;nan;101269.84;5026175;28;20036;-75
2021/12/13 13:08:27;;;;;;;26.95;12.23;;;;;;;1.15;nan;101281.16;5026215;28;20104;-75
2021/12/13 13:11:27;;;;;;;30.20;12.13;;;;;;;1.11;nan;101285.00;5014804;28;20038;-77
2021/12/13 13:14:18;;;;;;;31.17;13.02;;;;;;;1.14;nan;101284.69;5026812;28;20037;-77
2021/12/13 13:17:06;;;;;;;30.85;14.23;;;;;;;1.06;nan;101280.22;5030878;28;20169;-79
2021/12/13 13:19:56;;;;;;;27.90;13.65;;;;;;;1.05;nan;101270.81;5031024;28;21114;-77
2021/12/13 13:22:46;;;;;;;32.42;14.50;;;;;;;1.09;nan;101286.91;5026259;28;20072;-76
2021/12/13 13:25:40;;;;;;;29.65;14.25;;;;;;;1.12;nan;101293.59;5028377;28;20042;-76
2021/12/13 13:28:31;;;;;;;33.75;16.10;;;;;;;1.16;nan;101302.72;5029568;28;20496;-76
2021/12/13 13:31:38;;;;;;;25.08;11.50;;;;;;;1.05;nan;101304.53;5026952;28;20033;-77
2021/12/13 13:34:30;;;;;;;21.27;11.18;;;;;;;0.95;nan;101300.31;5033524;28;20029;-77
2021/12/13 13:37:21;;;;;;;21.25;10.43;;;;;;;1.00;nan;101316.28;5029456;28;20504;-76
2021/12/13 13:40:30;;;;;;;22.02;10.70;;;;;;;0.96;nan;101313.16;5023282;28;20046;-77
2021/12/13 13:43:16;;;;;;;22.35;10.48;;;;;;;0.97;nan;101324.34;5018733;28;20393;-77
2021/12/13 13:46:03;;;;;;;22.50;11.27;;;;;;;0.94;nan;101309.06;5032361;28;20103;-77
2021/12/13 13:48:49;;;;;;;21.02;10.75;;;;;;;0.96;nan;101318.34;5031860;28;20045;-77